createdAt,value
2019-02-19T00:00:05.799Z,58.67
2019-02-19T00:02:34.581Z,58.36
2019-02-19T00:05:03.672Z,58.19
2019-02-19T00:07:32.585Z,59.85
2019-02-19T00:10:01.270Z,61.58
2019-02-19T00:12:30.146Z,61.90
2019-02-19T00:15:15.007Z,61.92
2019-02-19T00:17:43.650Z,61.42
2019-02-19T00:20:12.470Z,62.06
2019-02-19T00:22:41.370Z,63.81
2019-02-19T00:25:10.156Z,63.54
2019-02-19T00:27:38.855Z,63.59
2019-02-19T00:30:08.477Z,62.53
2019-02-19T00:32:37.153Z,61.72
2019-02-19T00:35:07.341Z,61.38
2019-02-19T00:37:36.331Z,61.93
2019-02-19T00:40:05.550Z,60.88
2019-02-19T00:42:34.629Z,61.54
2019-02-19T00:45:03.421Z,61.45
2019-02-19T00:47:32.206Z,61.74
2019-02-19T00:50:01.005Z,60.96
2019-02-19T00:52:29.765Z,60.72
2019-02-19T00:54:58.555Z,60.30
2019-02-19T00:57:27.450Z,60.28
2019-02-19T00:59:56.548Z,59.78
2019-02-19T01:02:25.335Z,59.53
2019-02-19T01:04:54.002Z,60.04
2019-02-19T01:07:22.635Z,60.79
2019-02-19T01:09:51.335Z,61.01
2019-02-19T01:12:19.969Z,61.91
2019-02-19T01:14:48.673Z,62.82
2019-02-19T01:17:17.438Z,62.90
2019-02-19T01:19:46.346Z,62.53
2019-02-19T01:22:15.003Z,63.69
2019-02-19T01:24:43.905Z,63.46
2019-02-19T01:27:12.615Z,64.74
2019-02-19T01:29:41.480Z,65.14
2019-02-19T01:32:10.142Z,64.19
2019-02-19T01:34:39.040Z,63.56
2019-02-19T01:37:07.827Z,64.20
2019-02-19T01:39:36.458Z,65.03
2019-02-19T01:42:05.165Z,65.22
2019-02-19T01:44:33.895Z,64.17
2019-02-19T01:47:02.784Z,63.99
2019-02-19T01:49:31.566Z,64.26
2019-02-19T01:52:00.453Z,65.40
2019-02-19T01:54:29.116Z,66.22
2019-02-19T01:56:57.896Z,66.38
2019-02-19T01:59:26.541Z,65.82
2019-02-19T02:01:55.185Z,65.90
2019-02-19T02:04:24.077Z,66.03
2019-02-19T02:06:52.696Z,65.83
2019-02-19T02:09:21.655Z,64.61
2019-02-19T02:11:50.438Z,65.11
2019-02-19T02:14:19.225Z,66.27
2019-02-19T02:16:47.975Z,65.89
2019-02-19T02:19:16.788Z,65.68
2019-02-19T02:21:45.692Z,64.68
2019-02-19T02:24:14.475Z,64.95
2019-02-19T02:26:43.180Z,65.24
2019-02-19T02:29:11.819Z,65.28
2019-02-19T02:31:40.835Z,65.64
2019-02-19T02:34:09.615Z,66.52
2019-02-19T02:36:38.307Z,66.73
2019-02-19T02:39:07.298Z,66.16
2019-02-19T02:41:35.976Z,65.10
2019-02-19T02:44:04.861Z,64.64
2019-02-19T02:46:33.655Z,64.59
2019-02-19T02:49:02.380Z,64.50
2019-02-19T02:51:31.237Z,64.84
2019-02-19T02:53:59.975Z,65.23
2019-02-19T02:56:28.918Z,65.92
2019-02-19T02:58:57.576Z,65.59
2019-02-19T03:01:26.481Z,66.83
2019-02-19T03:03:55.204Z,66.18
2019-02-19T03:06:25.693Z,66.90
2019-02-19T03:08:54.476Z,66.91
2019-02-19T03:11:23.177Z,67.07
2019-02-19T03:13:51.976Z,67.23
2019-02-19T03:16:20.932Z,66.83
2019-02-19T03:18:49.577Z,66.68
2019-02-19T03:21:18.248Z,67.39
2019-02-19T03:23:47.187Z,67.87
2019-02-19T03:26:15.976Z,67.34
2019-02-19T03:28:44.877Z,66.78
2019-02-19T03:31:13.676Z,66.75
2019-02-19T03:33:42.455Z,66.22
2019-02-19T03:36:11.186Z,66.30
2019-02-19T03:38:39.975Z,66.37
2019-02-19T03:41:08.795Z,67.05
2019-02-19T03:43:37.685Z,67.07
2019-02-19T03:46:11.962Z,67.38
2019-02-19T03:48:36.775Z,67.30
2019-02-19T03:51:05.696Z,67.17
2019-02-19T03:53:34.491Z,66.57
2019-02-19T03:56:03.185Z,66.57
2019-02-19T03:58:31.895Z,66.01
2019-02-19T04:01:00.840Z,66.63
2019-02-19T04:03:29.618Z,67.08
2019-02-19T04:05:58.407Z,66.98
2019-02-19T04:08:27.190Z,67.32
2019-02-19T04:10:55.980Z,67.19
2019-02-19T04:13:24.880Z,66.94
2019-02-19T04:15:53.662Z,66.69
2019-02-19T04:18:22.332Z,65.67
2019-02-19T04:20:51.232Z,65.76
2019-02-19T04:23:20.430Z,66.49
2019-02-19T04:25:49.200Z,66.65
2019-02-19T04:28:18.215Z,66.75
2019-02-19T04:30:47.105Z,67.01
2019-02-19T04:33:15.888Z,68.45
2019-02-19T04:35:44.716Z,68.14
2019-02-19T04:38:13.421Z,68.90
2019-02-19T04:40:42.350Z,66.95
2019-02-19T04:43:10.997Z,65.12
2019-02-19T04:45:39.920Z,65.95
2019-02-19T04:48:08.541Z,66.28
2019-02-19T04:50:37.495Z,68.95
2019-02-19T04:53:06.276Z,65.43
2019-02-19T04:55:35.015Z,65.20
2019-02-19T04:58:03.888Z,66.87
2019-02-19T05:00:32.638Z,66.20
2019-02-19T05:03:01.542Z,67.32
2019-02-19T05:05:30.315Z,67.10
2019-02-19T05:07:59.016Z,66.64
2019-02-19T05:10:27.886Z,66.21
2019-02-19T05:12:56.675Z,63.63
2019-02-19T05:15:25.453Z,60.41
2019-02-19T05:17:54.235Z,60.83
2019-02-19T05:20:23.028Z,61.84
2019-02-19T05:22:51.926Z,62.95
2019-02-19T05:25:20.757Z,63.53
2019-02-19T05:27:49.806Z,64.33
2019-02-19T05:30:18.607Z,65.08
2019-02-19T05:32:47.367Z,64.92
2019-02-19T05:35:16.210Z,65.75
2019-02-19T05:37:45.056Z,64.71
2019-02-19T05:40:13.735Z,64.14
2019-02-19T05:42:42.358Z,64.00
2019-02-19T05:45:11.166Z,64.21
2019-02-19T05:47:40.197Z,63.63
2019-02-19T05:50:10.630Z,64.25
2019-02-19T05:52:39.284Z,64.12
2019-02-19T05:55:08.802Z,64.36
2019-02-19T05:57:37.576Z,63.94
2019-02-19T06:00:09.798Z,63.62
2019-02-19T06:02:38.450Z,64.14
2019-02-19T06:05:09.497Z,63.81
2019-02-19T06:07:38.162Z,64.35
2019-02-19T06:10:10.225Z,66.24
2019-02-19T06:12:39.166Z,66.94
2019-02-19T06:15:10.791Z,65.72
2019-02-19T06:17:39.876Z,64.95
2019-02-19T06:20:09.723Z,65.57
2019-02-19T06:22:38.778Z,66.70
2019-02-19T06:25:09.478Z,66.41
2019-02-19T06:27:38.918Z,66.87
2019-02-19T06:30:10.977Z,66.11
2019-02-19T06:32:39.753Z,65.89
2019-02-19T06:35:09.821Z,66.67
2019-02-19T06:37:38.553Z,67.16
2019-02-19T06:40:15.566Z,67.34
2019-02-19T06:42:44.530Z,67.17
2019-02-19T06:45:13.265Z,67.45
2019-02-19T06:47:42.055Z,67.25
2019-02-19T06:50:10.880Z,67.25
2019-02-19T06:52:39.666Z,66.73
2019-02-19T06:55:08.780Z,66.31
2019-02-19T06:57:37.661Z,66.28
2019-02-19T07:00:12.170Z,66.26
2019-02-19T07:02:45.478Z,66.11
2019-02-19T07:05:18.766Z,66.90
2019-02-19T07:07:47.504Z,66.78
2019-02-19T07:10:16.303Z,66.65
2019-02-19T07:12:45.115Z,65.85
2019-02-19T07:15:13.900Z,64.85
2019-02-19T07:17:42.803Z,64.49
2019-02-19T07:20:11.810Z,64.76
2019-02-19T07:22:40.680Z,65.71
2019-02-19T07:25:11.978Z,64.89
2019-02-19T07:27:40.785Z,64.14
2019-02-19T07:30:11.546Z,64.04
2019-02-19T07:32:40.297Z,64.25
2019-02-19T07:35:10.696Z,64.27
2019-02-19T07:37:39.374Z,64.81
2019-02-19T07:40:09.355Z,64.92
2019-02-19T07:42:38.028Z,65.93
2019-02-19T07:45:09.736Z,65.94
2019-02-19T07:47:38.551Z,65.35
2019-02-19T07:50:09.938Z,64.72
2019-02-19T07:52:38.708Z,64.84
2019-02-19T07:55:09.743Z,65.52
2019-02-19T07:57:38.416Z,65.01
2019-02-19T08:00:12.415Z,63.67
2019-02-19T08:02:41.338Z,62.20
2019-02-19T08:05:10.081Z,63.76
2019-02-19T08:07:38.865Z,62.45
2019-02-19T08:10:13.841Z,61.46
2019-02-19T08:12:42.480Z,61.23
2019-02-19T08:15:12.296Z,61.12
2019-02-19T08:17:41.118Z,60.23
2019-02-19T08:20:15.866Z,60.05
2019-02-19T08:22:40.936Z,60.57
2019-02-19T08:25:09.607Z,60.11
2019-02-19T08:27:38.235Z,58.65
2019-02-19T08:30:11.211Z,57.50
2019-02-19T08:32:40.304Z,57.56
2019-02-19T08:35:09.093Z,57.75
2019-02-19T08:37:37.896Z,56.00
2019-02-19T08:40:09.603Z,55.84
2019-02-19T08:42:38.324Z,55.08
2019-02-19T08:45:09.422Z,54.31
2019-02-19T08:47:42.767Z,53.74
2019-02-19T08:50:08.944Z,52.16
2019-02-19T08:52:37.746Z,51.18
2019-02-19T08:55:07.491Z,50.81
2019-02-19T08:57:36.295Z,49.72
2019-02-19T09:00:08.086Z,48.00
2019-02-19T09:02:36.776Z,48.14
2019-02-19T09:05:07.525Z,46.41
2019-02-19T09:07:36.367Z,46.37
2019-02-19T09:10:07.659Z,45.20
2019-02-19T09:12:36.456Z,45.88
2019-02-19T09:15:07.826Z,44.43
2019-02-19T09:17:36.616Z,43.57
2019-02-19T09:20:08.301Z,41.12
2019-02-19T09:22:37.115Z,39.28
2019-02-19T09:25:08.681Z,36.15
2019-02-19T09:27:37.966Z,33.86
2019-02-19T09:30:12.461Z,31.54
2019-02-19T09:32:41.101Z,30.68
2019-02-19T09:35:10.376Z,29.89
2019-02-19T09:37:39.266Z,29.14
2019-02-19T09:40:11.367Z,28.52
2019-02-19T09:42:40.306Z,27.17
2019-02-19T09:45:10.696Z,27.37
2019-02-19T09:47:39.531Z,27.43
2019-02-19T09:50:10.535Z,26.34
2019-02-19T09:52:39.189Z,24.40
2019-02-19T09:55:08.348Z,25.06
2019-02-19T09:57:37.071Z,24.96
2019-02-19T10:00:14.126Z,24.89
2019-02-19T10:02:43.940Z,24.96
2019-02-19T10:05:12.949Z,25.79
2019-02-19T10:07:41.747Z,26.34
2019-02-19T10:10:19.380Z,25.46
2019-02-19T10:12:48.050Z,25.54
2019-02-19T10:15:16.776Z,25.16
2019-02-19T10:17:45.576Z,25.16
2019-02-19T10:20:14.440Z,26.17
2019-02-19T10:22:43.175Z,24.60
2019-02-19T10:25:14.286Z,24.97
2019-02-19T10:27:43.355Z,26.04
2019-02-19T10:30:17.951Z,26.47
2019-02-19T10:32:46.724Z,26.96
2019-02-19T10:35:15.495Z,27.31
2019-02-19T10:37:44.653Z,26.93
2019-02-19T10:40:18.225Z,26.11
2019-02-19T10:42:47.033Z,26.09
2019-02-19T10:45:24.461Z,25.56
2019-02-19T10:47:53.319Z,25.61
2019-02-19T10:50:22.007Z,25.76
2019-02-19T10:52:51.758Z,25.09
2019-02-19T10:55:21.020Z,25.94
2019-02-19T10:57:49.736Z,26.28
2019-02-19T11:00:23.086Z,25.12
2019-02-19T11:02:51.837Z,25.89
2019-02-19T11:05:21.207Z,25.61
2019-02-19T11:07:50.058Z,26.03
2019-02-19T11:10:18.715Z,25.48
2019-02-19T11:12:47.741Z,25.78
2019-02-19T11:15:17.460Z,25.63
2019-02-19T11:17:46.994Z,26.24
2019-02-19T11:20:18.910Z,26.59
2019-02-19T11:22:47.672Z,26.25
2019-02-19T11:25:16.483Z,25.91
2019-02-19T11:27:45.255Z,25.66
2019-02-19T11:30:20.338Z,26.17
2019-02-19T11:32:49.286Z,24.79
2019-02-19T11:35:17.936Z,24.70
2019-02-19T11:37:46.993Z,24.20
2019-02-19T11:40:15.986Z,23.41
2019-02-19T11:42:44.852Z,23.67
2019-02-19T11:45:17.936Z,24.00
2019-02-19T11:47:46.860Z,24.41
2019-02-19T11:50:15.655Z,24.31
2019-02-19T11:52:44.304Z,25.09
2019-02-19T11:55:18.446Z,26.26
2019-02-19T11:57:47.175Z,25.95
2019-02-19T12:00:18.652Z,25.19
2019-02-19T12:02:47.303Z,25.75
2019-02-19T12:05:16.178Z,24.86
2019-02-19T12:07:44.935Z,23.49
2019-02-19T12:10:13.735Z,24.45
2019-02-19T12:12:42.573Z,23.73
2019-02-19T12:15:12.936Z,23.01
2019-02-19T12:17:41.737Z,22.96
2019-02-19T12:20:12.775Z,23.80
2019-02-19T12:22:41.403Z,24.12
2019-02-19T12:25:10.708Z,25.14
2019-02-19T12:27:39.605Z,26.51
2019-02-19T12:30:14.731Z,26.32
2019-02-19T12:32:43.501Z,27.21
2019-02-19T12:35:12.325Z,27.14
2019-02-19T12:37:41.047Z,26.57
2019-02-19T12:40:14.073Z,26.70
2019-02-19T12:42:42.975Z,28.09
2019-02-19T12:45:13.255Z,28.49
2019-02-19T12:47:42.056Z,28.60
2019-02-19T12:50:16.297Z,30.25
2019-02-19T12:52:45.185Z,28.54
2019-02-19T12:55:13.826Z,27.62
2019-02-19T12:57:42.552Z,27.43
2019-02-19T13:00:13.842Z,28.54
2019-02-19T13:02:44.055Z,28.92
2019-02-19T13:05:14.538Z,29.63
2019-02-19T13:07:43.173Z,30.43
2019-02-19T13:10:13.141Z,29.99
2019-02-19T13:12:41.965Z,29.80
2019-02-19T13:15:16.466Z,31.15
2019-02-19T13:17:45.257Z,30.85
2019-02-19T13:20:15.778Z,29.82
2019-02-19T13:22:44.863Z,29.32
2019-02-19T13:25:13.586Z,31.95
2019-02-19T13:27:42.730Z,30.69
2019-02-19T13:30:21.908Z,31.31
2019-02-19T13:32:51.020Z,32.27
2019-02-19T13:35:19.977Z,32.10
2019-02-19T13:37:48.847Z,31.57
2019-02-19T13:40:21.116Z,32.26
2019-02-19T13:42:49.753Z,32.23
2019-02-19T13:45:18.791Z,32.71
2019-02-19T13:47:47.449Z,32.79
2019-02-19T13:50:22.706Z,31.90
2019-02-19T13:52:55.974Z,33.06
2019-02-19T13:55:26.457Z,32.43
2019-02-19T13:57:55.185Z,34.41
2019-02-19T14:00:25.588Z,35.18
2019-02-19T14:02:54.194Z,35.42
2019-02-19T14:05:22.844Z,35.46
2019-02-19T14:07:51.546Z,34.82
2019-02-19T14:10:20.487Z,33.76
2019-02-19T14:12:49.293Z,34.38
2019-02-19T14:15:35.785Z,34.08
2019-02-19T14:18:06.404Z,32.62
2019-02-19T14:20:51.888Z,32.46
2019-02-19T14:23:22.229Z,32.35
2019-02-19T14:25:55.906Z,33.50
2019-02-19T14:28:26.126Z,35.94
2019-02-19T14:31:12.653Z,34.76
2019-02-19T14:33:48.787Z,33.62
2019-02-19T14:36:15.027Z,33.61
2019-02-19T14:38:45.426Z,35.22
2019-02-19T14:41:22.026Z,35.69
2019-02-19T14:43:52.305Z,33.91
2019-02-19T14:46:38.705Z,35.09
2019-02-19T14:49:14.865Z,35.31
2019-02-19T14:51:54.648Z,35.64
2019-02-19T14:54:33.586Z,35.52
2019-02-19T14:57:09.847Z,36.07
2019-02-19T14:59:40.145Z,35.79
2019-02-19T15:02:29.213Z,35.77
2019-02-19T15:04:59.509Z,36.80
2019-02-19T15:07:32.785Z,37.38
2019-02-19T15:10:19.236Z,37.14
2019-02-19T15:13:01.785Z,37.64
2019-02-19T15:15:48.545Z,36.99
2019-02-19T15:18:18.865Z,37.46
2019-02-19T15:20:58.546Z,37.13
2019-02-19T15:23:29.091Z,38.00
2019-02-19T15:25:59.667Z,39.09
2019-02-19T15:28:35.827Z,38.97
2019-02-19T15:31:09.226Z,38.94
2019-02-19T15:33:56.145Z,38.97
2019-02-19T15:36:42.932Z,39.66
2019-02-19T15:39:19.106Z,39.78
2019-02-19T15:42:05.830Z,40.64
2019-02-19T15:44:38.945Z,40.09
2019-02-19T15:47:24.224Z,39.80
2019-02-19T15:50:06.657Z,39.25
2019-02-19T15:52:45.914Z,39.60
2019-02-19T15:55:31.889Z,39.60
2019-02-19T15:58:04.781Z,39.77
2019-02-19T16:00:43.809Z,40.64
2019-02-19T16:03:17.535Z,41.25
2019-02-19T16:05:47.824Z,40.56
2019-02-19T16:08:21.766Z,40.79
2019-02-19T16:10:51.549Z,40.62
2019-02-19T16:13:21.924Z,40.64
2019-02-19T16:15:55.903Z,40.47
2019-02-19T16:18:38.646Z,40.86
2019-02-19T16:21:13.606Z,40.90
2019-02-19T16:23:45.270Z,41.32
2019-02-19T16:26:21.820Z,41.34
2019-02-19T16:28:56.639Z,41.15
2019-02-19T16:31:34.385Z,41.51
2019-02-19T16:34:11.825Z,41.71
2019-02-19T16:36:52.522Z,41.95
2019-02-19T16:39:33.732Z,42.08
2019-02-19T16:42:04.434Z,42.49
2019-02-19T16:44:38.446Z,43.31
2019-02-19T16:47:24.229Z,43.35
2019-02-19T16:50:12.889Z,44.03
2019-02-19T16:52:56.364Z,44.67
2019-02-19T16:55:36.627Z,44.37
2019-02-19T16:58:11.164Z,44.61
2019-02-19T17:00:42.951Z,44.74
2019-02-19T17:03:16.846Z,45.29
2019-02-19T17:05:47.146Z,45.53
2019-02-19T17:08:18.544Z,46.04
2019-02-19T17:11:02.466Z,46.42
2019-02-19T17:13:58.096Z,47.13
2019-02-19T17:16:26.247Z,47.23
2019-02-19T17:18:58.224Z,46.38
2019-02-19T17:21:36.085Z,46.49
2019-02-19T17:24:13.204Z,46.00
2019-02-19T17:26:44.846Z,45.67
2019-02-19T17:29:31.824Z,45.48
2019-02-19T17:32:21.765Z,46.04
2019-02-19T17:34:56.685Z,46.85
2019-02-19T17:37:40.145Z,46.94
2019-02-19T17:40:11.784Z,46.21
2019-02-19T17:43:01.446Z,45.75
2019-02-19T17:45:45.986Z,45.32
2019-02-19T17:48:17.705Z,45.35
2019-02-19T17:50:51.829Z,45.75
2019-02-19T17:53:29.604Z,45.78
2019-02-19T17:56:13.124Z,46.09
2019-02-19T17:58:50.267Z,46.29
2019-02-19T18:01:30.928Z,46.43
2019-02-19T18:04:01.585Z,46.75
2019-02-19T18:06:32.905Z,46.83
2019-02-19T18:09:03.665Z,47.11
2019-02-19T18:11:35.665Z,47.56
2019-02-19T18:14:06.659Z,48.01
2019-02-19T18:16:40.433Z,47.56
2019-02-19T18:19:11.025Z,47.69
2019-02-19T18:21:41.913Z,47.70
2019-02-19T18:24:13.424Z,47.64
2019-02-19T18:26:44.829Z,47.61
2019-02-19T18:29:15.826Z,47.60
2019-02-19T18:31:46.568Z,47.49
2019-02-19T18:34:16.948Z,47.98
2019-02-19T18:36:47.665Z,47.41
2019-02-19T18:39:18.728Z,47.39
2019-02-19T18:41:49.124Z,47.48
2019-02-19T18:44:19.844Z,47.39
2019-02-19T18:46:50.227Z,47.77
2019-02-19T18:49:20.945Z,49.23
2019-02-19T18:51:51.345Z,49.48
2019-02-19T18:54:21.525Z,50.75
2019-02-19T18:56:52.164Z,50.72
2019-02-19T18:59:22.645Z,50.73
2019-02-19T19:01:53.265Z,51.33
2019-02-19T19:04:23.984Z,52.67
2019-02-19T19:06:55.784Z,53.43
2019-02-19T19:09:26.404Z,53.91
2019-02-19T19:11:57.115Z,54.94
2019-02-19T19:14:27.655Z,56.13
2019-02-19T19:16:58.235Z,56.15
2019-02-19T19:19:28.625Z,57.31
2019-02-19T19:21:59.344Z,58.33
2019-02-19T19:24:30.084Z,58.74
2019-02-19T19:27:00.804Z,59.54
2019-02-19T19:29:31.585Z,60.22
2019-02-19T19:32:02.566Z,61.00
2019-02-19T19:34:33.285Z,61.10
2019-02-19T19:37:04.006Z,61.32
2019-02-19T19:39:34.726Z,62.17
2019-02-19T19:42:05.461Z,62.52
2019-02-19T19:44:36.165Z,62.88
2019-02-19T19:47:06.884Z,62.63
2019-02-19T19:49:37.610Z,62.67
2019-02-19T19:52:08.326Z,62.96
2019-02-19T19:54:38.724Z,62.94
2019-02-19T19:57:10.724Z,63.25
2019-02-19T19:59:41.766Z,63.71
2019-02-19T20:02:12.487Z,63.80
2019-02-19T20:04:43.204Z,64.33
2019-02-19T20:07:14.245Z,64.63
2019-02-19T20:09:45.092Z,64.99
2019-02-19T20:12:14.182Z,65.89
2019-02-19T20:14:43.538Z,65.82
2019-02-19T20:17:14.050Z,65.96
2019-02-19T20:19:45.285Z,65.50
2019-02-19T20:22:16.005Z,65.29
2019-02-19T20:24:47.375Z,65.04
2019-02-19T20:27:18.645Z,65.42
2019-02-19T20:29:48.584Z,65.62
2019-02-19T20:32:18.886Z,66.07
2019-02-19T20:34:49.609Z,66.87
2019-02-19T20:37:22.213Z,67.63
2019-02-19T20:39:55.586Z,68.19
2019-02-19T20:42:27.524Z,68.33
2019-02-19T20:45:00.827Z,67.77
2019-02-19T20:47:31.526Z,66.90
2019-02-19T20:50:01.866Z,66.22
2019-02-19T20:52:34.249Z,66.13
2019-02-19T20:55:04.967Z,66.03
2019-02-19T20:57:35.684Z,66.05
2019-02-19T21:00:07.612Z,65.99
2019-02-19T21:02:39.366Z,66.25
2019-02-19T21:05:11.048Z,65.97
2019-02-19T21:07:41.765Z,65.92
2019-02-19T21:10:14.846Z,65.24
2019-02-19T21:12:44.905Z,65.19
2019-02-19T21:15:15.525Z,64.70
2019-02-19T21:17:45.584Z,64.37
2019-02-19T21:20:16.646Z,64.12
2019-02-19T21:22:48.328Z,63.53
2019-02-19T21:25:18.545Z,65.07
2019-02-19T21:27:49.124Z,65.70
2019-02-19T21:30:19.847Z,65.71
2019-02-19T21:32:50.244Z,65.49
2019-02-19T21:35:20.965Z,65.57
2019-02-19T21:37:51.366Z,66.05
2019-02-19T21:40:22.064Z,66.05
2019-02-19T21:42:52.804Z,65.96
2019-02-19T21:45:23.527Z,66.20
2019-02-19T21:47:54.248Z,66.24
2019-02-19T21:50:24.968Z,66.53
2019-02-19T21:52:55.446Z,66.68
2019-02-19T21:55:26.126Z,66.72
2019-02-19T21:57:56.205Z,66.43
2019-02-19T22:00:26.224Z,66.40
2019-02-19T22:02:55.665Z,65.97
2019-02-19T22:05:24.564Z,66.32
2019-02-19T22:07:53.657Z,66.48
2019-02-19T22:10:22.747Z,66.51
2019-02-19T22:12:51.544Z,66.53
2019-02-19T22:15:20.304Z,66.80
2019-02-19T22:17:49.211Z,66.72
2019-02-19T22:20:40.429Z,66.85
2019-02-19T22:23:09.085Z,66.85
2019-02-19T22:25:37.929Z,67.16
2019-02-19T22:28:06.705Z,66.91
2019-02-19T22:30:35.570Z,66.51
2019-02-19T22:33:04.204Z,66.02
2019-02-19T22:35:32.864Z,66.13
2019-02-19T22:38:01.585Z,66.11
2019-02-19T22:40:30.307Z,65.41
2019-02-19T22:42:59.307Z,64.68
2019-02-19T22:45:27.986Z,64.50
2019-02-19T22:47:56.792Z,64.57
2019-02-19T22:50:25.666Z,64.78
2019-02-19T22:52:54.368Z,64.69
2019-02-19T22:55:34.086Z,64.46
2019-02-19T22:58:02.873Z,64.82
2019-02-19T23:00:49.910Z,65.35
2019-02-19T23:03:26.065Z,65.84
2019-02-19T23:05:54.925Z,66.55
2019-02-19T23:08:23.664Z,66.44
2019-02-19T23:10:52.504Z,66.27
2019-02-19T23:13:21.264Z,66.05
2019-02-19T23:15:50.064Z,66.25
2019-02-19T23:18:18.966Z,66.08
2019-02-19T23:20:48.065Z,66.20
2019-02-19T23:23:16.785Z,66.21
2019-02-19T23:25:45.645Z,65.88
2019-02-19T23:28:14.385Z,66.02
2019-02-19T23:30:43.204Z,66.26
2019-02-19T23:33:12.107Z,66.45
2019-02-19T23:35:51.446Z,66.69
2019-02-19T23:38:20.145Z,67.08
2019-02-19T23:40:48.965Z,66.83
2019-02-19T23:43:17.666Z,66.17
2019-02-19T23:45:46.564Z,66.08
2019-02-19T23:48:15.366Z,66.42
2019-02-19T23:50:44.146Z,66.47
2019-02-19T23:53:12.777Z,66.83
2019-02-19T23:55:41.826Z,67.10
2019-02-19T23:58:10.546Z,67.14
